ROMMA est une association bénévole à but non lucratif. Votre soutien est indispensable : ADHERER à ROMMA ou FAIRE un DON

Crest - (26, Drôme)

Vallée de la Drôme (315 m)   Longitude: 5°2' E   Latitude: 44°44' N Station partenaire n°62
 

Détail journalier du     <<     >>

Température Precipitation Humidité Pression Vent Dir Rafale Dir. rafale Ensol.
Heure (°C) (mm) (%) (hPa) (km/h) (km/h) (min)
01:00 11.907010172SE11SSE0
02:00 11.007910164SE21SE0
03:00 10.508110163SE15SE0
04:00 10.208110162SSE10SSE0
05:00 9.508610153SSO8NNE0
06:00 10.808110157SE23SE0
07:00 9.308410156SE19SE0
08:00 9.908310151SE10SSE0
09:00 10.308010147SE21SE0
10:00 11.607310156SE19SSE20
11:00 12.107510147SE21SE0
12:00 12.6073101413SE27SE0
13:00 15.6053101222SE56SE0
14:00 15.8051101123SE60SE3
15:00 13.9065101120SE47SE0
16:00 13.4070101218SE40SE0
17:00 13.7068101221SE39SE10
18:00 13.7066101117SE35SE0
19:00 14.4058101017SE32ESE0
20:00 14.3054100920ESE40ESE0
21:00 14.4055100922SE48ESE0
22:00 14.4054100926SE53SE0
23:00 14.6053100729ESE61SE0
minuit 14.7053100628ESE55SE0

Graphique du 19-12-2019

 

Serveur OMMA